sensor_id;sensor_type;location;lat;lon;timestamp;P1;durP1;ratioP1;P2;durP2;ratioP2
13785;SDS011;47474;48.824;9.384;2023-05-20T00:35:43;6.68;;;4.97;;
13785;SDS011;47474;48.824;9.384;2023-05-20T00:38:09;5.83;;;4.63;;
13785;SDS011;47474;48.824;9.384;2023-05-20T00:40:36;8.57;;;5.80;;
13785;SDS011;47474;48.824;9.384;2023-05-20T00:43:02;6.10;;;5.50;;
13785;SDS011;47474;48.824;9.384;2023-05-20T00:45:29;7.00;;;5.23;;
13785;SDS011;47474;48.824;9.384;2023-05-20T00:47:56;7.97;;;6.03;;
13785;SDS011;47474;48.824;9.384;2023-05-20T00:50:25;8.27;;;5.57;;
13785;SDS011;47474;48.824;9.384;2023-05-20T00:52:54;6.90;;;5.30;;
13785;SDS011;47474;48.824;9.384;2023-05-20T00:55:21;5.77;;;5.10;;
13785;SDS011;47474;48.824;9.384;2023-05-20T00:57:47;6.10;;;4.93;;
13785;SDS011;47474;48.824;9.384;2023-05-20T01:00:14;7.10;;;5.50;;
13785;SDS011;47474;48.824;9.384;2023-05-20T01:02:41;6.13;;;4.97;;
13785;SDS011;47474;48.824;9.384;2023-05-20T01:05:08;6.80;;;5.03;;
13785;SDS011;47474;48.824;9.384;2023-05-20T01:07:34;7.10;;;5.10;;
13785;SDS011;47474;48.824;9.384;2023-05-20T01:10:02;5.63;;;5.13;;
13785;SDS011;47474;48.824;9.384;2023-05-20T01:12:30;6.07;;;5.47;;
13785;SDS011;47474;48.824;9.384;2023-05-20T01:15:02;6.27;;;4.80;;
13785;SDS011;47474;48.824;9.384;2023-05-20T01:17:32;5.60;;;4.93;;
13785;SDS011;47474;48.824;9.384;2023-05-20T01:20:02;5.17;;;4.23;;
13785;SDS011;47474;48.824;9.384;2023-05-20T01:22:34;5.93;;;5.33;;
13785;SDS011;47474;48.824;9.384;2023-05-20T01:25:02;5.37;;;4.87;;
13785;SDS011;47474;48.824;9.384;2023-05-20T01:27:29;5.97;;;4.27;;
13785;SDS011;47474;48.824;9.384;2023-05-20T01:29:56;4.70;;;4.03;;
13785;SDS011;47474;48.824;9.384;2023-05-20T01:32:23;5.33;;;4.00;;
13785;SDS011;47474;48.824;9.384;2023-05-20T01:34:52;7.87;;;4.83;;
13785;SDS011;47474;48.824;9.384;2023-05-20T01:37:20;5.10;;;4.60;;
13785;SDS011;47474;48.824;9.384;2023-05-20T01:39:49;5.33;;;4.80;;
13785;SDS011;47474;48.824;9.384;2023-05-20T01:42:15;4.43;;;3.93;;
13785;SDS011;47474;48.824;9.384;2023-05-20T01:44:42;5.10;;;4.60;;
13785;SDS011;47474;48.824;9.384;2023-05-20T01:47:09;6.30;;;4.27;;
13785;SDS011;47474;48.824;9.384;2023-05-20T01:49:35;6.83;;;4.97;;
13785;SDS011;47474;48.824;9.384;2023-05-20T01:52:02;5.63;;;5.00;;
13785;SDS011;47474;48.824;9.384;2023-05-20T01:54:29;7.17;;;5.47;;
13785;SDS011;47474;48.824;9.384;2023-05-20T01:56:57;6.23;;;5.20;;
13785;SDS011;47474;48.824;9.384;2023-05-20T01:59:24;5.20;;;4.63;;
13785;SDS011;47474;48.824;9.384;2023-05-20T02:01:51;5.60;;;4.90;;
13785;SDS011;47474;48.824;9.384;2023-05-20T02:04:17;8.33;;;5.53;;
13785;SDS011;47474;48.824;9.384;2023-05-20T02:06:45;6.37;;;5.30;;
13785;SDS011;47474;48.824;9.384;2023-05-20T02:09:12;6.37;;;5.10;;
13785;SDS011;47474;48.824;9.384;2023-05-20T02:11:38;7.07;;;5.40;;
13785;SDS011;47474;48.824;9.384;2023-05-20T02:14:06;6.00;;;5.40;;
13785;SDS011;47474;48.824;9.384;2023-05-20T02:16:33;6.97;;;5.27;;
13785;SDS011;47474;48.824;9.384;2023-05-20T02:19:00;5.33;;;4.83;;
13785;SDS011;47474;48.824;9.384;2023-05-20T02:21:26;6.40;;;5.80;;
13785;SDS011;47474;48.824;9.384;2023-05-20T02:23:53;7.67;;;5.90;;
13785;SDS011;47474;48.824;9.384;2023-05-20T02:26:20;7.20;;;5.53;;
13785;SDS011;47474;48.824;9.384;2023-05-20T02:28:46;5.40;;;4.90;;
13785;SDS011;47474;48.824;9.384;2023-05-20T02:31:16;7.13;;;5.67;;
13785;SDS011;47474;48.824;9.384;2023-05-20T02:33:42;7.63;;;5.33;;
13785;SDS011;47474;48.824;9.384;2023-05-20T02:36:09;6.67;;;5.23;;
13785;SDS011;47474;48.824;9.384;2023-05-20T02:38:36;5.90;;;5.30;;
13785;SDS011;47474;48.824;9.384;2023-05-20T02:41:02;7.77;;;5.30;;
13785;SDS011;47474;48.824;9.384;2023-05-20T02:43:29;5.17;;;4.67;;
13785;SDS011;47474;48.824;9.384;2023-05-20T02:45:56;6.30;;;4.93;;
13785;SDS011;47474;48.824;9.384;2023-05-20T02:48:24;6.27;;;4.90;;
13785;SDS011;47474;48.824;9.384;2023-05-20T02:50:50;7.33;;;5.43;;
13785;SDS011;47474;48.824;9.384;2023-05-20T02:53:18;6.77;;;5.40;;
13785;SDS011;47474;48.824;9.384;2023-05-20T02:55:45;8.27;;;5.17;;
13785;SDS011;47474;48.824;9.384;2023-05-20T02:58:12;8.53;;;5.47;;
13785;SDS011;47474;48.824;9.384;2023-05-20T03:00:39;5.87;;;5.27;;
13785;SDS011;47474;48.824;9.384;2023-05-20T03:03:06;5.80;;;4.77;;
13785;SDS011;47474;48.824;9.384;2023-05-20T03:05:35;6.00;;;5.40;;
13785;SDS011;47474;48.824;9.384;2023-05-20T03:08:02;5.63;;;4.83;;
13785;SDS011;47474;48.824;9.384;2023-05-20T03:10:29;7.20;;;5.40;;
13785;SDS011;47474;48.824;9.384;2023-05-20T03:12:56;7.50;;;5.40;;
13785;SDS011;47474;48.824;9.384;2023-05-20T03:15:22;6.17;;;5.50;;
13785;SDS011;47474;48.824;9.384;2023-05-20T03:17:49;6.67;;;5.07;;
13785;SDS011;47474;48.824;9.384;2023-05-20T03:20:15;6.47;;;5.63;;
13785;SDS011;47474;48.824;9.384;2023-05-20T03:22:44;6.07;;;5.10;;
13785;SDS011;47474;48.824;9.384;2023-05-20T03:25:10;7.93;;;5.53;;
13785;SDS011;47474;48.824;9.384;2023-05-20T03:27:37;6.13;;;5.50;;
13785;SDS011;47474;48.824;9.384;2023-05-20T03:30:04;9.03;;;5.70;;
13785;SDS011;47474;48.824;9.384;2023-05-20T03:32:32;8.47;;;6.00;;
13785;SDS011;47474;48.824;9.384;2023-05-20T03:34:58;6.50;;;5.47;;
13785;SDS011;47474;48.824;9.384;2023-05-20T03:37:25;5.67;;;5.17;;
13785;SDS011;47474;48.824;9.384;2023-05-20T03:39:53;5.63;;;5.03;;
13785;SDS011;47474;48.824;9.384;2023-05-20T03:42:20;6.93;;;5.37;;
13785;SDS011;47474;48.824;9.384;2023-05-20T03:44:46;5.43;;;4.93;;
13785;SDS011;47474;48.824;9.384;2023-05-20T03:47:13;7.50;;;6.73;;
13785;SDS011;47474;48.824;9.384;2023-05-20T03:49:39;8.57;;;5.87;;
13785;SDS011;47474;48.824;9.384;2023-05-20T03:52:06;7.97;;;6.20;;
13785;SDS011;47474;48.824;9.384;2023-05-20T03:54:33;11.73;;;6.03;;
13785;SDS011;47474;48.824;9.384;2023-05-20T03:57:02;8.50;;;6.33;;
13785;SDS011;47474;48.824;9.384;2023-05-20T03:59:28;6.87;;;5.23;;
13785;SDS011;47474;48.824;9.384;2023-05-20T04:01:55;6.73;;;5.63;;
13785;SDS011;47474;48.824;9.384;2023-05-20T04:04:22;6.27;;;5.43;;
13785;SDS011;47474;48.824;9.384;2023-05-20T04:06:48;8.13;;;5.80;;
13785;SDS011;47474;48.824;9.384;2023-05-20T04:09:15;7.33;;;5.70;;
13785;SDS011;47474;48.824;9.384;2023-05-20T04:11:41;7.00;;;5.03;;
13785;SDS011;47474;48.824;9.384;2023-05-20T04:14:09;6.03;;;5.30;;
13785;SDS011;47474;48.824;9.384;2023-05-20T04:16:36;6.93;;;5.70;;
13785;SDS011;47474;48.824;9.384;2023-05-20T04:19:02;6.07;;;5.40;;
13785;SDS011;47474;48.824;9.384;2023-05-20T04:21:29;6.77;;;5.37;;
13785;SDS011;47474;48.824;9.384;2023-05-20T04:23:56;6.43;;;5.27;;
13785;SDS011;47474;48.824;9.384;2023-05-20T04:26:22;8.47;;;5.10;;
13785;SDS011;47474;48.824;9.384;2023-05-20T04:28:49;5.83;;;5.30;;
13785;SDS011;47474;48.824;9.384;2023-05-20T04:31:17;6.37;;;5.70;;
13785;SDS011;47474;48.824;9.384;2023-05-20T04:33:44;6.40;;;5.80;;
13785;SDS011;47474;48.824;9.384;2023-05-20T04:36:11;6.47;;;5.87;;
13785;SDS011;47474;48.824;9.384;2023-05-20T04:38:40;5.93;;;5.43;;
13785;SDS011;47474;48.824;9.384;2023-05-20T04:41:08;6.17;;;5.20;;
13785;SDS011;47474;48.824;9.384;2023-05-20T04:43:34;7.43;;;5.63;;
13785;SDS011;47474;48.824;9.384;2023-05-20T04:46:03;8.60;;;5.20;;
13785;SDS011;47474;48.824;9.384;2023-05-20T04:48:32;7.17;;;5.70;;
13785;SDS011;47474;48.824;9.384;2023-05-20T04:50:59;6.03;;;5.43;;
13785;SDS011;47474;48.824;9.384;2023-05-20T04:53:26;6.77;;;5.83;;
13785;SDS011;47474;48.824;9.384;2023-05-20T04:55:54;6.07;;;5.47;;
13785;SDS011;47474;48.824;9.384;2023-05-20T04:58:21;6.83;;;6.10;;
13785;SDS011;47474;48.824;9.384;2023-05-20T05:00:49;5.87;;;5.27;;
13785;SDS011;47474;48.824;9.384;2023-05-20T05:03:16;6.40;;;5.80;;
13785;SDS011;47474;48.824;9.384;2023-05-20T05:05:44;6.67;;;5.97;;
13785;SDS011;47474;48.824;9.384;2023-05-20T05:08:11;6.47;;;5.77;;
13785;SDS011;47474;48.824;9.384;2023-05-20T05:10:37;6.23;;;5.60;;
13785;SDS011;47474;48.824;9.384;2023-05-20T05:13:04;6.40;;;5.57;;
13785;SDS011;47474;48.824;9.384;2023-05-20T05:15:30;6.43;;;5.50;;
13785;SDS011;47474;48.824;9.384;2023-05-20T05:17:57;5.97;;;5.37;;
13785;SDS011;47474;48.824;9.384;2023-05-20T05:20:24;6.53;;;5.40;;
13785;SDS011;47474;48.824;9.384;2023-05-20T05:22:51;7.00;;;5.17;;
13785;SDS011;47474;48.824;9.384;2023-05-20T05:25:18;6.10;;;5.50;;
13785;SDS011;47474;48.824;9.384;2023-05-20T05:27:45;6.67;;;5.87;;
13785;SDS011;47474;48.824;9.384;2023-05-20T05:30:13;8.40;;;5.93;;
13785;SDS011;47474;48.824;9.384;2023-05-20T05:32:39;7.20;;;6.07;;
13785;SDS011;47474;48.824;9.384;2023-05-20T05:35:06;6.20;;;5.50;;
13785;SDS011;47474;48.824;9.384;2023-05-20T05:37:33;5.70;;;5.10;;
13785;SDS011;47474;48.824;9.384;2023-05-20T05:40:01;5.80;;;5.20;;
13785;SDS011;47474;48.824;9.384;2023-05-20T05:42:28;6.43;;;5.80;;
13785;SDS011;47474;48.824;9.384;2023-05-20T05:44:54;7.37;;;4.80;;
13785;SDS011;47474;48.824;9.384;2023-05-20T05:47:21;6.33;;;5.50;;
13785;SDS011;47474;48.824;9.384;2023-05-20T05:49:47;7.57;;;6.50;;
13785;SDS011;47474;48.824;9.384;2023-05-20T05:52:14;6.07;;;5.13;;
13785;SDS011;47474;48.824;9.384;2023-05-20T05:54:40;5.97;;;5.37;;
13785;SDS011;47474;48.824;9.384;2023-05-20T05:57:08;5.37;;;4.87;;
13785;SDS011;47474;48.824;9.384;2023-05-20T05:59:36;6.13;;;5.53;;
13785;SDS011;47474;48.824;9.384;2023-05-20T06:02:02;6.07;;;4.90;;
13785;SDS011;47474;48.824;9.384;2023-05-20T06:04:29;7.13;;;5.73;;
13785;SDS011;47474;48.824;9.384;2023-05-20T06:06:55;8.43;;;5.20;;
13785;SDS011;47474;48.824;9.384;2023-05-20T06:09:22;6.37;;;4.77;;
13785;SDS011;47474;48.824;9.384;2023-05-20T06:11:48;5.90;;;5.20;;
13785;SDS011;47474;48.824;9.384;2023-05-20T06:14:16;7.40;;;4.80;;
13785;SDS011;47474;48.824;9.384;2023-05-20T06:16:43;5.43;;;4.90;;
13785;SDS011;47474;48.824;9.384;2023-05-20T06:19:09;5.47;;;4.97;;
13785;SDS011;47474;48.824;9.384;2023-05-20T06:21:36;5.00;;;4.60;;
13785;SDS011;47474;48.824;9.384;2023-05-20T06:24:02;5.53;;;5.03;;
13785;SDS011;47474;48.824;9.384;2023-05-20T06:26:29;5.10;;;4.60;;
13785;SDS011;47474;48.824;9.384;2023-05-20T06:28:56;6.85;;;5.20;;
13785;SDS011;47474;48.824;9.384;2023-05-20T06:31:23;4.30;;;3.90;;
13785;SDS011;47474;48.824;9.384;2023-05-20T06:33:50;5.03;;;4.47;;
13785;SDS011;47474;48.824;9.384;2023-05-20T06:36:16;5.85;;;5.07;;
13785;SDS011;47474;48.824;9.384;2023-05-20T06:38:43;4.78;;;4.30;;
13785;SDS011;47474;48.824;9.384;2023-05-20T06:41:09;5.82;;;4.90;;
13785;SDS011;47474;48.824;9.384;2023-05-20T06:43:36;5.18;;;4.68;;
13785;SDS011;47474;48.824;9.384;2023-05-20T06:46:04;5.93;;;4.90;;
13785;SDS011;47474;48.824;9.384;2023-05-20T06:48:32;5.22;;;4.72;;
13785;SDS011;47474;48.824;9.384;2023-05-20T06:50:58;5.07;;;4.65;;
13785;SDS011;47474;48.824;9.384;2023-05-20T06:53:25;4.68;;;4.05;;
13785;SDS011;47474;48.824;9.384;2023-05-20T06:55:52;4.82;;;4.43;;
13785;SDS011;47474;48.824;9.384;2023-05-20T06:58:19;5.80;;;4.28;;
13785;SDS011;47474;48.824;9.384;2023-05-20T07:00:46;5.40;;;4.50;;
13785;SDS011;47474;48.824;9.384;2023-05-20T07:03:12;5.45;;;4.70;;
13785;SDS011;47474;48.824;9.384;2023-05-20T07:05:42;5.38;;;4.88;;
13785;SDS011;47474;48.824;9.384;2023-05-20T07:08:08;5.03;;;4.20;;
13785;SDS011;47474;48.824;9.384;2023-05-20T07:10:35;5.72;;;4.97;;
13785;SDS011;47474;48.824;9.384;2023-05-20T07:13:01;4.60;;;4.18;;
13785;SDS011;47474;48.824;9.384;2023-05-20T07:15:28;6.10;;;4.40;;
13785;SDS011;47474;48.824;9.384;2023-05-20T07:17:54;5.15;;;4.65;;
13785;SDS011;47474;48.824;9.384;2023-05-20T07:20:21;5.43;;;4.82;;
13785;SDS011;47474;48.824;9.384;2023-05-20T07:22:49;5.18;;;4.68;;
13785;SDS011;47474;48.824;9.384;2023-05-20T07:25:15;4.97;;;4.40;;
13785;SDS011;47474;48.824;9.384;2023-05-20T07:27:42;4.90;;;4.40;;
13785;SDS011;47474;48.824;9.384;2023-05-20T07:30:09;4.40;;;4.00;;
13785;SDS011;47474;48.824;9.384;2023-05-20T07:32:35;5.03;;;4.57;;
13785;SDS011;47474;48.824;9.384;2023-05-20T07:35:02;5.60;;;5.10;;
13785;SDS011;47474;48.824;9.384;2023-05-20T07:37:29;5.38;;;4.82;;
13785;SDS011;47474;48.824;9.384;2023-05-20T07:39:57;5.40;;;4.90;;
13785;SDS011;47474;48.824;9.384;2023-05-20T07:42:23;5.10;;;4.60;;
13785;SDS011;47474;48.824;9.384;2023-05-20T07:44:50;5.00;;;4.50;;
13785;SDS011;47474;48.824;9.384;2023-05-20T07:47:16;5.15;;;4.32;;
13785;SDS011;47474;48.824;9.384;2023-05-20T07:49:43;5.72;;;4.72;;
13785;SDS011;47474;48.824;9.384;2023-05-20T07:52:10;4.82;;;4.30;;
13785;SDS011;47474;48.824;9.384;2023-05-20T07:54:37;5.13;;;4.60;;
13785;SDS011;47474;48.824;9.384;2023-05-20T07:57:05;5.70;;;4.82;;
13785;SDS011;47474;48.824;9.384;2023-05-20T07:59:32;6.07;;;4.60;;
13785;SDS011;47474;48.824;9.384;2023-05-20T08:01:58;5.15;;;4.65;;
13785;SDS011;47474;48.824;9.384;2023-05-20T08:04:25;6.00;;;4.72;;
13785;SDS011;47474;48.824;9.384;2023-05-20T08:06:52;5.38;;;4.70;;
13785;SDS011;47474;48.824;9.384;2023-05-20T08:09:19;5.32;;;4.78;;
13785;SDS011;47474;48.824;9.384;2023-05-20T08:11:45;5.50;;;4.80;;
13785;SDS011;47474;48.824;9.384;2023-05-20T08:14:13;7.97;;;4.78;;
13785;SDS011;47474;48.824;9.384;2023-05-20T08:16:40;4.90;;;4.50;;
13785;SDS011;47474;48.824;9.384;2023-05-20T08:19:07;5.10;;;4.60;;
13785;SDS011;47474;48.824;9.384;2023-05-20T08:21:34;4.65;;;4.25;;
13785;SDS011;47474;48.824;9.384;2023-05-20T08:24:00;8.07;;;4.82;;
13785;SDS011;47474;48.824;9.384;2023-05-20T08:26:27;4.72;;;4.32;;
13785;SDS011;47474;48.824;9.384;2023-05-20T08:28:54;4.70;;;3.95;;
13785;SDS011;47474;48.824;9.384;2023-05-20T08:31:21;4.53;;;4.13;;
13785;SDS011;47474;48.824;9.384;2023-05-20T08:33:48;4.80;;;4.30;;
13785;SDS011;47474;48.824;9.384;2023-05-20T08:36:15;7.25;;;4.47;;
13785;SDS011;47474;48.824;9.384;2023-05-20T08:38:43;5.20;;;4.70;;
13785;SDS011;47474;48.824;9.384;2023-05-20T08:41:10;5.30;;;4.63;;
13785;SDS011;47474;48.824;9.384;2023-05-20T08:43:37;5.03;;;4.43;;
13785;SDS011;47474;48.824;9.384;2023-05-20T08:46:03;7.10;;;4.55;;
13785;SDS011;47474;48.824;9.384;2023-05-20T08:48:32;6.55;;;4.45;;
13785;SDS011;47474;48.824;9.384;2023-05-20T08:50:59;6.40;;;4.90;;
13785;SDS011;47474;48.824;9.384;2023-05-20T08:53:28;5.40;;;4.90;;
13785;SDS011;47474;48.824;9.384;2023-05-20T08:55:55;4.93;;;4.40;;
13785;SDS011;47474;48.824;9.384;2023-05-20T08:58:23;4.65;;;4.25;;
13785;SDS011;47474;48.824;9.384;2023-05-20T09:00:50;4.97;;;4.13;;
13785;SDS011;47474;48.824;9.384;2023-05-20T09:03:17;5.43;;;4.78;;
13785;SDS011;47474;48.824;9.384;2023-05-20T09:05:45;4.75;;;4.25;;
13785;SDS011;47474;48.824;9.384;2023-05-20T09:08:12;4.20;;;3.80;;
13785;SDS011;47474;48.824;9.384;2023-05-20T09:10:39;5.28;;;4.78;;
13785;SDS011;47474;48.824;9.384;2023-05-20T09:13:07;7.15;;;4.90;;
13785;SDS011;47474;48.824;9.384;2023-05-20T09:15:35;4.93;;;4.28;;
13785;SDS011;47474;48.824;9.384;2023-05-20T09:18:02;5.10;;;4.32;;
13785;SDS011;47474;48.824;9.384;2023-05-20T09:20:31;7.05;;;5.05;;
13785;SDS011;47474;48.824;9.384;2023-05-20T09:23:00;4.45;;;4.15;;
13785;SDS011;47474;48.824;9.384;2023-05-20T09:25:27;4.05;;;3.75;;
13785;SDS011;47474;48.824;9.384;2023-05-20T09:27:54;4.20;;;3.80;;
13785;SDS011;47474;48.824;9.384;2023-05-20T09:30:21;4.75;;;4.35;;
13785;SDS011;47474;48.824;9.384;2023-05-20T09:32:51;7.22;;;4.60;;
13785;SDS011;47474;48.824;9.384;2023-05-20T09:35:18;4.68;;;4.28;;
13785;SDS011;47474;48.824;9.384;2023-05-20T09:37:45;4.88;;;4.20;;
13785;SDS011;47474;48.824;9.384;2023-05-20T09:40:14;4.78;;;4.32;;
13785;SDS011;47474;48.824;9.384;2023-05-20T09:42:46;5.85;;;4.63;;
13785;SDS011;47474;48.824;9.384;2023-05-20T09:45:16;4.82;;;4.43;;
13785;SDS011;47474;48.824;9.384;2023-05-20T09:47:43;5.47;;;4.10;;
13785;SDS011;47474;48.824;9.384;2023-05-20T09:50:10;4.15;;;3.85;;
13785;SDS011;47474;48.824;9.384;2023-05-20T09:52:38;4.35;;;3.95;;
13785;SDS011;47474;48.824;9.384;2023-05-20T09:55:05;4.18;;;3.78;;
13785;SDS011;47474;48.824;9.384;2023-05-20T09:57:34;4.63;;;4.18;;
13785;SDS011;47474;48.824;9.384;2023-05-20T10:00:01;5.03;;;4.30;;
13785;SDS011;47474;48.824;9.384;2023-05-20T10:02:30;3.53;;;3.22;;
13785;SDS011;47474;48.824;9.384;2023-05-20T10:04:56;3.92;;;3.47;;
13785;SDS011;47474;48.824;9.384;2023-05-20T10:10:31;4.30;;;3.75;;
13785;SDS011;47474;48.824;9.384;2023-05-20T10:13:07;4.13;;;3.60;;
13785;SDS011;47474;48.824;9.384;2023-05-20T10:15:43;4.82;;;3.53;;
13785;SDS011;47474;48.824;9.384;2023-05-20T10:18:17;4.65;;;3.63;;
13785;SDS011;47474;48.824;9.384;2023-05-20T10:20:49;4.97;;;3.75;;
13785;SDS011;47474;48.824;9.384;2023-05-20T10:23:19;3.80;;;3.38;;
13785;SDS011;47474;48.824;9.384;2023-05-20T10:25:50;4.43;;;3.15;;
13785;SDS011;47474;48.824;9.384;2023-05-20T10:28:26;3.70;;;3.40;;
13785;SDS011;47474;48.824;9.384;2023-05-20T10:30:54;3.70;;;3.40;;
13785;SDS011;47474;48.824;9.384;2023-05-20T10:33:21;4.13;;;3.72;;
13785;SDS011;47474;48.824;9.384;2023-05-20T10:35:49;4.38;;;3.97;;
13785;SDS011;47474;48.824;9.384;2023-05-20T10:38:15;4.30;;;3.90;;
13785;SDS011;47474;48.824;9.384;2023-05-20T10:40:42;4.18;;;3.78;;
13785;SDS011;47474;48.824;9.384;2023-05-20T10:43:09;4.15;;;3.80;;
13785;SDS011;47474;48.824;9.384;2023-05-20T10:45:47;4.30;;;3.70;;
13785;SDS011;47474;48.824;9.384;2023-05-20T10:48:24;4.20;;;3.80;;
13785;SDS011;47474;48.824;9.384;2023-05-20T10:50:53;4.57;;;4.13;;
13785;SDS011;47474;48.824;9.384;2023-05-20T13:02:27;4.30;;;3.90;;
13785;SDS011;47474;48.824;9.384;2023-05-20T13:44:58;4.22;;;3.33;;
13785;SDS011;47474;48.824;9.384;2023-05-20T13:47:24;3.90;;;3.42;;
13785;SDS011;47474;48.824;9.384;2023-05-20T13:49:50;4.07;;;3.47;;
13785;SDS011;47474;48.824;9.384;2023-05-20T13:52:17;3.67;;;3.33;;
13785;SDS011;47474;48.824;9.384;2023-05-20T13:54:43;3.78;;;3.47;;
13785;SDS011;47474;48.824;9.384;2023-05-20T13:57:11;4.57;;;3.80;;
13785;SDS011;47474;48.824;9.384;2023-05-20T13:59:37;3.60;;;3.30;;
13785;SDS011;47474;48.824;9.384;2023-05-20T21:07:31;10.25;;;8.43;;
13785;SDS011;47474;48.824;9.384;2023-05-20T21:09:57;9.82;;;8.02;;
13785;SDS011;47474;48.824;9.384;2023-05-20T21:12:24;9.48;;;8.50;;
13785;SDS011;47474;48.824;9.384;2023-05-20T21:14:50;8.20;;;7.47;;
13785;SDS011;47474;48.824;9.384;2023-05-20T21:17:17;10.25;;;9.25;;
13785;SDS011;47474;48.824;9.384;2023-05-20T21:19:43;11.07;;;9.77;;
13785;SDS011;47474;48.824;9.384;2023-05-20T21:22:09;10.30;;;9.18;;
13785;SDS011;47474;48.824;9.384;2023-05-20T21:24:37;11.20;;;9.35;;
13785;SDS011;47474;48.824;9.384;2023-05-20T21:27:04;10.27;;;9.15;;
13785;SDS011;47474;48.824;9.384;2023-05-20T21:29:31;13.50;;;8.98;;
13785;SDS011;47474;48.824;9.384;2023-05-20T21:31:59;10.02;;;9.02;;
13785;SDS011;47474;48.824;9.384;2023-05-20T21:34:25;9.73;;;8.73;;
13785;SDS011;47474;48.824;9.384;2023-05-20T21:36:52;8.45;;;7.63;;
13785;SDS011;47474;48.824;9.384;2023-05-20T21:39:18;10.00;;;7.18;;
13785;SDS011;47474;48.824;9.384;2023-05-20T21:41:46;8.85;;;7.90;;
13785;SDS011;47474;48.824;9.384;2023-05-20T21:44:13;8.02;;;7.22;;
13785;SDS011;47474;48.824;9.384;2023-05-20T21:46:39;8.93;;;8.02;;
13785;SDS011;47474;48.824;9.384;2023-05-20T21:49:06;9.23;;;8.32;;
13785;SDS011;47474;48.824;9.384;2023-05-20T21:51:32;9.18;;;8.27;;
13785;SDS011;47474;48.824;9.384;2023-05-20T21:53:58;11.18;;;9.15;;
13785;SDS011;47474;48.824;9.384;2023-05-20T21:56:25;8.98;;;8.07;;
13785;SDS011;47474;48.824;9.384;2023-05-20T21:58:53;9.70;;;8.07;;
13785;SDS011;47474;48.824;9.384;2023-05-20T22:01:19;8.60;;;7.70;;
13785;SDS011;47474;48.824;9.384;2023-05-20T22:03:46;9.27;;;8.38;;
13785;SDS011;47474;48.824;9.384;2023-05-20T22:06:14;8.75;;;7.88;;
13785;SDS011;47474;48.824;9.384;2023-05-20T22:08:41;9.20;;;8.10;;
13785;SDS011;47474;48.824;9.384;2023-05-20T22:11:07;10.60;;;8.48;;
13785;SDS011;47474;48.824;9.384;2023-05-20T22:13:34;9.00;;;8.20;;
13785;SDS011;47474;48.824;9.384;2023-05-20T22:16:06;10.05;;;8.93;;
13785;SDS011;47474;48.824;9.384;2023-05-20T22:18:33;9.50;;;8.38;;
13785;SDS011;47474;48.824;9.384;2023-05-20T22:21:00;9.90;;;8.02;;
13785;SDS011;47474;48.824;9.384;2023-05-20T22:23:26;9.60;;;8.60;;
13785;SDS011;47474;48.824;9.384;2023-05-20T22:25:53;13.48;;;8.85;;
13785;SDS011;47474;48.824;9.384;2023-05-20T22:28:20;9.60;;;8.55;;
13785;SDS011;47474;48.824;9.384;2023-05-20T22:30:47;10.18;;;8.88;;
13785;SDS011;47474;48.824;9.384;2023-05-20T22:33:15;9.80;;;8.48;;
13785;SDS011;47474;48.824;9.384;2023-05-20T22:35:41;10.07;;;8.55;;
13785;SDS011;47474;48.824;9.384;2023-05-20T22:38:08;9.05;;;8.23;;
13785;SDS011;47474;48.824;9.384;2023-05-20T22:40:35;9.57;;;8.57;;
13785;SDS011;47474;48.824;9.384;2023-05-20T22:43:03;9.52;;;8.55;;
13785;SDS011;47474;48.824;9.384;2023-05-20T22:45:29;10.45;;;9.38;;
13785;SDS011;47474;48.824;9.384;2023-05-20T22:47:56;10.20;;;9.20;;
13785;SDS011;47474;48.824;9.384;2023-05-20T22:50:24;8.95;;;8.05;;
13785;SDS011;47474;48.824;9.384;2023-05-20T22:52:51;10.20;;;8.82;;
13785;SDS011;47474;48.824;9.384;2023-05-20T22:55:18;9.43;;;8.52;;
13785;SDS011;47474;48.824;9.384;2023-05-20T22:57:45;9.98;;;8.40;;
13785;SDS011;47474;48.824;9.384;2023-05-20T23:00:12;10.95;;;9.18;;
13785;SDS011;47474;48.824;9.384;2023-05-20T23:02:39;9.63;;;8.65;;
13785;SDS011;47474;48.824;9.384;2023-05-20T23:05:06;10.95;;;9.85;;
13785;SDS011;47474;48.824;9.384;2023-05-20T23:07:34;11.73;;;9.35;;
13785;SDS011;47474;48.824;9.384;2023-05-20T23:10:01;10.48;;;9.48;;
13785;SDS011;47474;48.824;9.384;2023-05-20T23:12:27;10.45;;;9.20;;
13785;SDS011;47474;48.824;9.384;2023-05-20T23:14:53;12.27;;;8.82;;
13785;SDS011;47474;48.824;9.384;2023-05-20T23:17:20;9.38;;;8.38;;
13785;SDS011;47474;48.824;9.384;2023-05-20T23:19:46;9.43;;;8.52;;
13785;SDS011;47474;48.824;9.384;2023-05-20T23:22:13;10.50;;;9.40;;
13785;SDS011;47474;48.824;9.384;2023-05-20T23:24:41;10.40;;;9.05;;
13785;SDS011;47474;48.824;9.384;2023-05-20T23:27:08;10.75;;;9.75;;
13785;SDS011;47474;48.824;9.384;2023-05-20T23:29:34;11.18;;;10.07;;
13785;SDS011;47474;48.824;9.384;2023-05-20T23:32:00;10.82;;;9.73;;
13785;SDS011;47474;48.824;9.384;2023-05-20T23:34:27;12.30;;;10.00;;
13785;SDS011;47474;48.824;9.384;2023-05-20T23:36:54;11.82;;;10.63;;
13785;SDS011;47474;48.824;9.384;2023-05-20T23:39:21;11.48;;;9.25;;
13785;SDS011;47474;48.824;9.384;2023-05-20T23:41:49;9.93;;;8.93;;
13785;SDS011;47474;48.824;9.384;2023-05-20T23:44:15;11.60;;;10.40;;
13785;SDS011;47474;48.824;9.384;2023-05-20T23:46:42;10.05;;;8.98;;
13785;SDS011;47474;48.824;9.384;2023-05-20T23:49:08;11.48;;;10.15;;
13785;SDS011;47474;48.824;9.384;2023-05-20T23:51:36;10.63;;;9.52;;
13785;SDS011;47474;48.824;9.384;2023-05-20T23:54:03;12.10;;;9.80;;
13785;SDS011;47474;48.824;9.384;2023-05-20T23:56:29;10.30;;;9.25;;
13785;SDS011;47474;48.824;9.384;2023-05-20T23:58:57;10.70;;;9.60;;
